sensor_id;sensor_type;location;lat;lon;timestamp;P1;durP1;ratioP1;P2;durP2;ratioP2
17504;SDS011;8870;50.950;11.762;2022-10-16T00:00:22;0.30;;;0.25;;
17504;SDS011;8870;50.950;11.762;2022-10-16T00:05:58;0.47;;;0.17;;
17504;SDS011;8870;50.950;11.762;2022-10-16T00:11:18;0.40;;;0.10;;
17504;SDS011;8870;50.950;11.762;2022-10-16T00:16:52;1.23;;;0.28;;
17504;SDS011;8870;50.950;11.762;2022-10-16T00:22:14;1.45;;;0.30;;
17504;SDS011;8870;50.950;11.762;2022-10-16T00:27:45;1.35;;;0.30;;
17504;SDS011;8870;50.950;11.762;2022-10-16T00:33:03;0.52;;;0.20;;
17504;SDS011;8870;50.950;11.762;2022-10-16T00:38:36;0.68;;;0.30;;
17504;SDS011;8870;50.950;11.762;2022-10-16T00:49:58;1.05;;;0.20;;
17504;SDS011;8870;50.950;11.762;2022-10-16T00:55:34;0.17;;;0.17;;
17504;SDS011;8870;50.950;11.762;2022-10-16T01:00:53;0.52;;;0.20;;
17504;SDS011;8870;50.950;11.762;2022-10-16T01:06:24;0.88;;;0.20;;
17504;SDS011;8870;50.950;11.762;2022-10-16T01:11:56;0.20;;;0.10;;
17504;SDS011;8870;50.950;11.762;2022-10-16T01:17:37;1.38;;;0.30;;
17504;SDS011;8870;50.950;11.762;2022-10-16T01:23:01;1.17;;;0.20;;
17504;SDS011;8870;50.950;11.762;2022-10-16T01:28:41;0.50;;;0.20;;
17504;SDS011;8870;50.950;11.762;2022-10-16T01:34:13;1.75;;;0.20;;
17504;SDS011;8870;50.950;11.762;2022-10-16T01:39:47;0.20;;;0.20;;
17504;SDS011;8870;50.950;11.762;2022-10-16T01:45:23;0.52;;;0.20;;
17504;SDS011;8870;50.950;11.762;2022-10-16T01:50:43;0.32;;;0.20;;
17504;SDS011;8870;50.950;11.762;2022-10-16T01:56:20;0.20;;;0.20;;
17504;SDS011;8870;50.950;11.762;2022-10-16T02:01:44;0.30;;;0.20;;
17504;SDS011;8870;50.950;11.762;2022-10-16T02:07:19;1.40;;;0.40;;
17504;SDS011;8870;50.950;11.762;2022-10-16T02:12:38;0.50;;;0.22;;
17504;SDS011;8870;50.950;11.762;2022-10-16T02:18:14;0.85;;;0.20;;
17504;SDS011;8870;50.950;11.762;2022-10-16T02:23:35;2.58;;;0.40;;
17504;SDS011;8870;50.950;11.762;2022-10-16T02:29:12;0.30;;;0.30;;
17504;SDS011;8870;50.950;11.762;2022-10-16T02:34:38;0.82;;;0.20;;
17504;SDS011;8870;50.950;11.762;2022-10-16T02:40:13;0.30;;;0.30;;
17504;SDS011;8870;50.950;11.762;2022-10-16T02:45:32;0.38;;;0.20;;
17504;SDS011;8870;50.950;11.762;2022-10-16T02:51:06;0.70;;;0.30;;
17504;SDS011;8870;50.950;11.762;2022-10-16T02:56:24;0.80;;;0.30;;
17504;SDS011;8870;50.950;11.762;2022-10-16T03:01:55;0.80;;;0.20;;
17504;SDS011;8870;50.950;11.762;2022-10-16T03:07:16;1.33;;;0.30;;
17504;SDS011;8870;50.950;11.762;2022-10-16T03:12:47;0.28;;;0.28;;
17504;SDS011;8870;50.950;11.762;2022-10-16T03:18:05;0.93;;;0.30;;
17504;SDS011;8870;50.950;11.762;2022-10-16T03:23:39;1.65;;;0.30;;
17504;SDS011;8870;50.950;11.762;2022-10-16T03:28:57;1.05;;;0.20;;
17504;SDS011;8870;50.950;11.762;2022-10-16T03:34:29;0.45;;;0.20;;
17504;SDS011;8870;50.950;11.762;2022-10-16T03:39:57;0.77;;;0.30;;
17504;SDS011;8870;50.950;11.762;2022-10-16T03:45:28;1.17;;;0.25;;
17504;SDS011;8870;50.950;11.762;2022-10-16T03:50:46;0.85;;;0.30;;
17504;SDS011;8870;50.950;11.762;2022-10-16T03:56:19;0.20;;;0.20;;
17504;SDS011;8870;50.950;11.762;2022-10-16T04:01:37;0.20;;;0.20;;
17504;SDS011;8870;50.950;11.762;2022-10-16T04:07:08;2.45;;;0.30;;
17504;SDS011;8870;50.950;11.762;2022-10-16T04:12:29;0.55;;;0.20;;
17504;SDS011;8870;50.950;11.762;2022-10-16T04:18:00;0.60;;;0.20;;
17504;SDS011;8870;50.950;11.762;2022-10-16T04:23:18;1.70;;;0.35;;
17504;SDS011;8870;50.950;11.762;2022-10-16T04:28:52;1.27;;;0.30;;
17504;SDS011;8870;50.950;11.762;2022-10-16T04:34:10;0.70;;;0.20;;
17504;SDS011;8870;50.950;11.762;2022-10-16T04:39:42;0.40;;;0.20;;
17504;SDS011;8870;50.950;11.762;2022-10-16T04:50:37;2.20;;;0.30;;
17504;SDS011;8870;50.950;11.762;2022-10-16T04:56:04;0.93;;;0.30;;
17504;SDS011;8870;50.950;11.762;2022-10-16T05:01:41;0.40;;;0.40;;
17504;SDS011;8870;50.950;11.762;2022-10-16T05:06:59;0.85;;;0.20;;
17504;SDS011;8870;50.950;11.762;2022-10-16T05:12:30;0.22;;;0.20;;
17504;SDS011;8870;50.950;11.762;2022-10-16T05:17:51;0.73;;;0.30;;
17504;SDS011;8870;50.950;11.762;2022-10-16T05:23:23;0.60;;;0.30;;
17504;SDS011;8870;50.950;11.762;2022-10-16T05:28:41;1.08;;;0.30;;
17504;SDS011;8870;50.950;11.762;2022-10-16T05:34:15;1.98;;;0.30;;
17504;SDS011;8870;50.950;11.762;2022-10-16T05:39:39;1.23;;;0.30;;
17504;SDS011;8870;50.950;11.762;2022-10-16T05:45:10;1.00;;;0.30;;
17504;SDS011;8870;50.950;11.762;2022-10-16T05:50:32;0.55;;;0.30;;
17504;SDS011;8870;50.950;11.762;2022-10-16T05:56:03;0.40;;;0.30;;
17504;SDS011;8870;50.950;11.762;2022-10-16T06:01:22;0.65;;;0.40;;
17504;SDS011;8870;50.950;11.762;2022-10-16T06:06:57;0.30;;;0.30;;
17504;SDS011;8870;50.950;11.762;2022-10-16T06:12:15;1.25;;;0.47;;
17504;SDS011;8870;50.950;11.762;2022-10-16T06:17:46;1.10;;;0.40;;
17504;SDS011;8870;50.950;11.762;2022-10-16T06:23:07;0.70;;;0.40;;
17504;SDS011;8870;50.950;11.762;2022-10-16T06:28:38;1.90;;;0.30;;
17504;SDS011;8870;50.950;11.762;2022-10-16T06:33:57;0.45;;;0.40;;
17504;SDS011;8870;50.950;11.762;2022-10-16T06:39:35;0.45;;;0.25;;
17504;SDS011;8870;50.950;11.762;2022-10-16T06:45:06;0.60;;;0.60;;
17504;SDS011;8870;50.950;11.762;2022-10-16T06:50:25;0.82;;;0.50;;
17504;SDS011;8870;50.950;11.762;2022-10-16T06:56:01;1.33;;;0.50;;
17504;SDS011;8870;50.950;11.762;2022-10-16T07:01:24;1.33;;;0.35;;
17504;SDS011;8870;50.950;11.762;2022-10-16T07:06:56;0.32;;;0.30;;
17504;SDS011;8870;50.950;11.762;2022-10-16T07:12:19;0.73;;;0.25;;
17504;SDS011;8870;50.950;11.762;2022-10-16T07:17:50;0.88;;;0.20;;
17504;SDS011;8870;50.950;11.762;2022-10-16T07:23:08;0.43;;;0.30;;
17504;SDS011;8870;50.950;11.762;2022-10-16T07:28:42;0.80;;;0.40;;
17504;SDS011;8870;50.950;11.762;2022-10-16T07:34:00;0.20;;;0.20;;
17504;SDS011;8870;50.950;11.762;2022-10-16T07:39:31;1.83;;;0.30;;
17504;SDS011;8870;50.950;11.762;2022-10-16T07:45:05;0.30;;;0.20;;
17504;SDS011;8870;50.950;11.762;2022-10-16T07:50:24;0.57;;;0.30;;
17504;SDS011;8870;50.950;11.762;2022-10-16T07:55:48;0.40;;;0.30;;
17504;SDS011;8870;50.950;11.762;2022-10-16T08:01:16;0.57;;;0.28;;
17504;SDS011;8870;50.950;11.762;2022-10-16T08:06:36;0.55;;;0.30;;
17504;SDS011;8870;50.950;11.762;2022-10-16T08:12:08;0.28;;;0.20;;
17504;SDS011;8870;50.950;11.762;2022-10-16T08:17:29;0.28;;;0.20;;
17504;SDS011;8870;50.950;11.762;2022-10-16T08:23:00;0.20;;;0.20;;
17504;SDS011;8870;50.950;11.762;2022-10-16T08:28:22;0.68;;;0.20;;
17504;SDS011;8870;50.950;11.762;2022-10-16T08:33:57;0.50;;;0.32;;
17504;SDS011;8870;50.950;11.762;2022-10-16T08:39:15;0.35;;;0.30;;
17504;SDS011;8870;50.950;11.762;2022-10-16T08:50:39;1.02;;;0.38;;
17504;SDS011;8870;50.950;11.762;2022-10-16T08:56:11;0.30;;;0.30;;
17504;SDS011;8870;50.950;11.762;2022-10-16T09:01:33;0.50;;;0.38;;
17504;SDS011;8870;50.950;11.762;2022-10-16T09:07:12;0.82;;;0.40;;
17504;SDS011;8870;50.950;11.762;2022-10-16T09:12:37;0.40;;;0.40;;
17504;SDS011;8870;50.950;11.762;2022-10-16T09:18:14;1.17;;;0.50;;
17504;SDS011;8870;50.950;11.762;2022-10-16T09:23:43;0.30;;;0.30;;
17504;SDS011;8870;50.950;11.762;2022-10-16T09:29:16;0.50;;;0.40;;
17504;SDS011;8870;50.950;11.762;2022-10-16T09:34:41;0.30;;;0.30;;
17504;SDS011;8870;50.950;11.762;2022-10-16T09:40:26;0.32;;;0.30;;
17504;SDS011;8870;50.950;11.762;2022-10-16T09:46:00;0.85;;;0.40;;
17504;SDS011;8870;50.950;11.762;2022-10-16T09:51:20;0.80;;;0.30;;
17504;SDS011;8870;50.950;11.762;2022-10-16T09:57:03;1.15;;;0.30;;
17504;SDS011;8870;50.950;11.762;2022-10-16T10:02:25;0.80;;;0.40;;
17504;SDS011;8870;50.950;11.762;2022-10-16T10:08:02;0.95;;;0.40;;
17504;SDS011;8870;50.950;11.762;2022-10-16T10:13:25;0.75;;;0.30;;
17504;SDS011;8870;50.950;11.762;2022-10-16T10:18:58;0.68;;;0.40;;
17504;SDS011;8870;50.950;11.762;2022-10-16T10:24:17;0.38;;;0.20;;
17504;SDS011;8870;50.950;11.762;2022-10-16T10:29:53;0.20;;;0.20;;
17504;SDS011;8870;50.950;11.762;2022-10-16T10:35:19;0.57;;;0.30;;
17504;SDS011;8870;50.950;11.762;2022-10-16T10:41:01;0.45;;;0.30;;
17504;SDS011;8870;50.950;11.762;2022-10-16T10:46:33;0.63;;;0.32;;
17504;SDS011;8870;50.950;11.762;2022-10-16T10:52:12;0.30;;;0.30;;
17504;SDS011;8870;50.950;11.762;2022-10-16T10:57:52;2.33;;;0.40;;
17504;SDS011;8870;50.950;11.762;2022-10-16T11:03:45;0.55;;;0.30;;
17504;SDS011;8870;50.950;11.762;2022-10-16T11:09:15;0.30;;;0.22;;
17504;SDS011;8870;50.950;11.762;2022-10-16T11:14:49;0.63;;;0.20;;
17504;SDS011;8870;50.950;11.762;2022-10-16T11:20:17;1.27;;;0.22;;
17504;SDS011;8870;50.950;11.762;2022-10-16T11:25:52;0.85;;;0.40;;
17504;SDS011;8870;50.950;11.762;2022-10-16T11:31:14;1.90;;;0.30;;
17504;SDS011;8870;50.950;11.762;2022-10-16T11:36:53;0.77;;;0.30;;
17504;SDS011;8870;50.950;11.762;2022-10-16T11:42:19;0.25;;;0.20;;
17504;SDS011;8870;50.950;11.762;2022-10-16T11:48:00;0.40;;;0.40;;
17504;SDS011;8870;50.950;11.762;2022-10-16T11:53:28;0.30;;;0.30;;
17504;SDS011;8870;50.950;11.762;2022-10-16T11:59:13;4.93;;;0.40;;
17504;SDS011;8870;50.950;11.762;2022-10-16T12:04:38;0.75;;;0.20;;
17504;SDS011;8870;50.950;11.762;2022-10-16T12:10:23;0.73;;;0.30;;
17504;SDS011;8870;50.950;11.762;2022-10-16T12:15:49;0.30;;;0.30;;
17504;SDS011;8870;50.950;11.762;2022-10-16T12:21:20;0.43;;;0.30;;
17504;SDS011;8870;50.950;11.762;2022-10-16T12:26:51;0.30;;;0.30;;
17504;SDS011;8870;50.950;11.762;2022-10-16T12:32:28;0.63;;;0.20;;
17504;SDS011;8870;50.950;11.762;2022-10-16T12:37:54;0.95;;;0.30;;
17504;SDS011;8870;50.950;11.762;2022-10-16T12:43:40;0.45;;;0.35;;
17504;SDS011;8870;50.950;11.762;2022-10-16T12:49:04;18.63;;;1.15;;
17504;SDS011;8870;50.950;11.762;2022-10-16T12:54:37;0.93;;;0.40;;
17504;SDS011;8870;50.950;11.762;2022-10-16T13:00:04;2.95;;;0.55;;
17504;SDS011;8870;50.950;11.762;2022-10-16T13:05:43;0.90;;;0.30;;
17504;SDS011;8870;50.950;11.762;2022-10-16T13:11:12;0.93;;;0.30;;
17504;SDS011;8870;50.950;11.762;2022-10-16T13:17:00;1.50;;;0.30;;
17504;SDS011;8870;50.950;11.762;2022-10-16T13:22:29;0.73;;;0.20;;
17504;SDS011;8870;50.950;11.762;2022-10-16T13:28:10;0.40;;;0.25;;
17504;SDS011;8870;50.950;11.762;2022-10-16T13:33:33;1.58;;;0.25;;
17504;SDS011;8870;50.950;11.762;2022-10-16T13:39:10;0.38;;;0.20;;
17504;SDS011;8870;50.950;11.762;2022-10-16T13:44:44;1.45;;;0.22;;
17504;SDS011;8870;50.950;11.762;2022-10-16T13:50:09;0.45;;;0.20;;
17504;SDS011;8870;50.950;11.762;2022-10-16T13:55:42;1.33;;;0.10;;
17504;SDS011;8870;50.950;11.762;2022-10-16T14:01:01;2.53;;;0.30;;
17504;SDS011;8870;50.950;11.762;2022-10-16T14:06:36;0.32;;;0.20;;
17504;SDS011;8870;50.950;11.762;2022-10-16T14:12:00;0.70;;;0.20;;
17504;SDS011;8870;50.950;11.762;2022-10-16T14:17:38;0.30;;;0.13;;
17504;SDS011;8870;50.950;11.762;2022-10-16T14:23:18;0.13;;;0.13;;
17504;SDS011;8870;50.950;11.762;2022-10-16T14:29:04;0.20;;;0.15;;
17504;SDS011;8870;50.950;11.762;2022-10-16T14:34:30;0.85;;;0.20;;
17504;SDS011;8870;50.950;11.762;2022-10-16T14:40:11;0.15;;;0.10;;
17504;SDS011;8870;50.950;11.762;2022-10-16T14:45:33;0.47;;;0.28;;
17504;SDS011;8870;50.950;11.762;2022-10-16T14:51:08;0.20;;;0.20;;
17504;SDS011;8870;50.950;11.762;2022-10-16T14:56:33;0.50;;;0.15;;
17504;SDS011;8870;50.950;11.762;2022-10-16T15:02:16;0.20;;;0.20;;
17504;SDS011;8870;50.950;11.762;2022-10-16T15:07:39;0.20;;;0.20;;
17504;SDS011;8870;50.950;11.762;2022-10-16T15:13:16;0.20;;;0.20;;
17504;SDS011;8870;50.950;11.762;2022-10-16T15:18:33;2.75;;;0.30;;
17504;SDS011;8870;50.950;11.762;2022-10-16T15:24:05;0.98;;;0.30;;
17504;SDS011;8870;50.950;11.762;2022-10-16T15:29:31;1.27;;;0.30;;
17504;SDS011;8870;50.950;11.762;2022-10-16T15:35:03;0.38;;;0.22;;
17504;SDS011;8870;50.950;11.762;2022-10-16T15:40:29;0.25;;;0.20;;
17504;SDS011;8870;50.950;11.762;2022-10-16T15:46:02;0.98;;;0.32;;
17504;SDS011;8870;50.950;11.762;2022-10-16T15:51:23;0.20;;;0.20;;
17504;SDS011;8870;50.950;11.762;2022-10-16T15:56:55;0.43;;;0.20;;
17504;SDS011;8870;50.950;11.762;2022-10-16T16:02:16;0.82;;;0.22;;
17504;SDS011;8870;50.950;11.762;2022-10-16T16:07:48;1.40;;;0.50;;
17504;SDS011;8870;50.950;11.762;2022-10-16T16:13:06;0.40;;;0.40;;
17504;SDS011;8870;50.950;11.762;2022-10-16T16:18:40;0.70;;;0.57;;
17504;SDS011;8870;50.950;11.762;2022-10-16T16:23:59;1.00;;;0.70;;
17504;SDS011;8870;50.950;11.762;2022-10-16T16:29:30;0.93;;;0.50;;
17504;SDS011;8870;50.950;11.762;2022-10-16T16:34:50;0.82;;;0.70;;
17504;SDS011;8870;50.950;11.762;2022-10-16T16:40:21;0.98;;;0.70;;
17504;SDS011;8870;50.950;11.762;2022-10-16T16:45:54;1.45;;;0.50;;
17504;SDS011;8870;50.950;11.762;2022-10-16T16:51:15;0.30;;;0.30;;
17504;SDS011;8870;50.950;11.762;2022-10-16T16:56:47;0.82;;;0.40;;
17504;SDS011;8870;50.950;11.762;2022-10-16T17:02:11;0.52;;;0.40;;
17504;SDS011;8870;50.950;11.762;2022-10-16T17:07:33;1.20;;;0.60;;
17504;SDS011;8870;50.950;11.762;2022-10-16T17:13:04;0.95;;;0.80;;
17504;SDS011;8870;50.950;11.762;2022-10-16T17:18:23;0.82;;;0.60;;
17504;SDS011;8870;50.950;11.762;2022-10-16T17:23:58;0.50;;;0.50;;
17504;SDS011;8870;50.950;11.762;2022-10-16T17:29:17;1.73;;;0.85;;
17504;SDS011;8870;50.950;11.762;2022-10-16T17:34:48;0.75;;;0.45;;
17504;SDS011;8870;50.950;11.762;2022-10-16T17:40:18;1.85;;;0.30;;
17504;SDS011;8870;50.950;11.762;2022-10-16T17:45:49;1.60;;;0.40;;
17504;SDS011;8870;50.950;11.762;2022-10-16T17:51:09;0.55;;;0.50;;
17504;SDS011;8870;50.950;11.762;2022-10-16T17:56:43;2.13;;;1.15;;
17504;SDS011;8870;50.950;11.762;2022-10-16T18:02:02;0.80;;;0.73;;
17504;SDS011;8870;50.950;11.762;2022-10-16T18:07:34;0.90;;;0.52;;
17504;SDS011;8870;50.950;11.762;2022-10-16T18:12:55;0.52;;;0.52;;
17504;SDS011;8870;50.950;11.762;2022-10-16T18:18:29;0.82;;;0.50;;
17504;SDS011;8870;50.950;11.762;2022-10-16T18:23:48;1.98;;;1.25;;
17504;SDS011;8870;50.950;11.762;2022-10-16T18:29:23;0.63;;;0.60;;
17504;SDS011;8870;50.950;11.762;2022-10-16T18:34:42;5.03;;;0.80;;
17504;SDS011;8870;50.950;11.762;2022-10-16T18:40:13;1.55;;;0.65;;
17504;SDS011;8870;50.950;11.762;2022-10-16T18:45:33;0.60;;;0.60;;
17504;SDS011;8870;50.950;11.762;2022-10-16T18:51:05;1.55;;;0.52;;
17504;SDS011;8870;50.950;11.762;2022-10-16T18:56:28;1.42;;;0.60;;
17504;SDS011;8870;50.950;11.762;2022-10-16T19:02:03;1.75;;;0.60;;
17504;SDS011;8870;50.950;11.762;2022-10-16T19:07:22;1.38;;;0.60;;
17504;SDS011;8870;50.950;11.762;2022-10-16T19:12:53;0.50;;;0.50;;
17504;SDS011;8870;50.950;11.762;2022-10-16T19:18:19;0.90;;;0.60;;
17504;SDS011;8870;50.950;11.762;2022-10-16T19:23:52;1.10;;;0.60;;
17504;SDS011;8870;50.950;11.762;2022-10-16T19:29:11;0.55;;;0.50;;
17504;SDS011;8870;50.950;11.762;2022-10-16T19:34:31;1.75;;;0.60;;
17504;SDS011;8870;50.950;11.762;2022-10-16T19:40:03;2.22;;;0.50;;
17504;SDS011;8870;50.950;11.762;2022-10-16T19:45:35;2.08;;;0.60;;
17504;SDS011;8870;50.950;11.762;2022-10-16T19:50:55;2.22;;;0.60;;
17504;SDS011;8870;50.950;11.762;2022-10-16T19:56:27;1.00;;;0.60;;
17504;SDS011;8870;50.950;11.762;2022-10-16T20:01:47;0.93;;;0.50;;
17504;SDS011;8870;50.950;11.762;2022-10-16T20:07:20;2.70;;;0.57;;
17504;SDS011;8870;50.950;11.762;2022-10-16T20:12:42;1.23;;;0.60;;
17504;SDS011;8870;50.950;11.762;2022-10-16T20:18:13;0.50;;;0.40;;
17504;SDS011;8870;50.950;11.762;2022-10-16T20:23:35;1.08;;;0.50;;
17504;SDS011;8870;50.950;11.762;2022-10-16T20:29:12;1.33;;;0.50;;
17504;SDS011;8870;50.950;11.762;2022-10-16T20:34:30;0.85;;;0.50;;
17504;SDS011;8870;50.950;11.762;2022-10-16T20:40:07;1.25;;;0.60;;
17504;SDS011;8870;50.950;11.762;2022-10-16T20:45:27;1.35;;;0.55;;
17504;SDS011;8870;50.950;11.762;2022-10-16T20:50:58;1.15;;;0.50;;
17504;SDS011;8870;50.950;11.762;2022-10-16T20:56:18;1.20;;;0.60;;
17504;SDS011;8870;50.950;11.762;2022-10-16T21:01:51;0.77;;;0.50;;
17504;SDS011;8870;50.950;11.762;2022-10-16T21:07:09;2.30;;;0.52;;
17504;SDS011;8870;50.950;11.762;2022-10-16T21:12:43;1.17;;;0.68;;
17504;SDS011;8870;50.950;11.762;2022-10-16T21:18:02;1.70;;;0.68;;
17504;SDS011;8870;50.950;11.762;2022-10-16T21:23:34;1.00;;;0.65;;
17504;SDS011;8870;50.950;11.762;2022-10-16T21:28:55;1.20;;;0.60;;
17504;SDS011;8870;50.950;11.762;2022-10-16T21:34:27;0.77;;;0.60;;
17504;SDS011;8870;50.950;11.762;2022-10-16T21:39:45;1.85;;;0.60;;
17504;SDS011;8870;50.950;11.762;2022-10-16T21:45:19;1.13;;;0.70;;
17504;SDS011;8870;50.950;11.762;2022-10-16T21:50:38;1.77;;;0.80;;
17504;SDS011;8870;50.950;11.762;2022-10-16T21:56:17;1.58;;;1.00;;
17504;SDS011;8870;50.950;11.762;2022-10-16T22:01:38;2.17;;;0.90;;
17504;SDS011;8870;50.950;11.762;2022-10-16T22:07:10;1.27;;;0.90;;
17504;SDS011;8870;50.950;11.762;2022-10-16T22:12:28;2.30;;;0.82;;
17504;SDS011;8870;50.950;11.762;2022-10-16T22:18:02;2.72;;;0.80;;
17504;SDS011;8870;50.950;11.762;2022-10-16T22:23:21;1.05;;;0.80;;
17504;SDS011;8870;50.950;11.762;2022-10-16T22:28:53;3.13;;;0.90;;
17504;SDS011;8870;50.950;11.762;2022-10-16T22:34:14;2.55;;;0.90;;
17504;SDS011;8870;50.950;11.762;2022-10-16T22:39:49;2.42;;;0.82;;
17504;SDS011;8870;50.950;11.762;2022-10-16T22:45:08;1.77;;;0.80;;
17504;SDS011;8870;50.950;11.762;2022-10-16T22:50:42;2.30;;;0.80;;
17504;SDS011;8870;50.950;11.762;2022-10-16T22:56:01;0.70;;;0.70;;
17504;SDS011;8870;50.950;11.762;2022-10-16T23:01:33;1.23;;;0.80;;
17504;SDS011;8870;50.950;11.762;2022-10-16T23:06:56;1.92;;;0.73;;
17504;SDS011;8870;50.950;11.762;2022-10-16T23:12:28;3.20;;;0.90;;
17504;SDS011;8870;50.950;11.762;2022-10-16T23:17:46;1.98;;;1.00;;
17504;SDS011;8870;50.950;11.762;2022-10-16T23:23:21;4.72;;;1.00;;
17504;SDS011;8870;50.950;11.762;2022-10-16T23:28:39;1.65;;;0.82;;
17504;SDS011;8870;50.950;11.762;2022-10-16T23:34:11;2.60;;;0.80;;
17504;SDS011;8870;50.950;11.762;2022-10-16T23:39:38;1.95;;;0.80;;
17504;SDS011;8870;50.950;11.762;2022-10-16T23:45:10;3.15;;;0.80;;
17504;SDS011;8870;50.950;11.762;2022-10-16T23:50:28;1.67;;;0.70;;
17504;SDS011;8870;50.950;11.762;2022-10-16T23:56:01;1.92;;;0.82;;
